createdAt,value
2022-12-25T00:01:08.490Z,15.83
2022-12-25T00:04:51.240Z,17.00
2022-12-25T00:08:33.503Z,15.43
2022-12-25T00:12:15.631Z,18.87
2022-12-25T00:15:57.507Z,12.90
2022-12-25T00:19:39.359Z,13.33
2022-12-25T00:23:21.076Z,10.73
2022-12-25T00:27:02.893Z,11.37
2022-12-25T00:30:44.603Z,14.60
2022-12-25T00:34:26.360Z,9.73
2022-12-25T00:38:08.203Z,13.27
2022-12-25T00:42:08.802Z,15.07
2022-12-25T00:45:58.975Z,15.68
2022-12-25T00:49:40.851Z,13.43
2022-12-25T00:53:23.285Z,13.60
2022-12-25T00:57:05.157Z,12.73
2022-12-25T01:00:48.505Z,15.53
2022-12-25T01:04:30.286Z,14.40
2022-12-25T01:08:12.033Z,12.83
2022-12-25T01:11:53.872Z,15.63
2022-12-25T01:15:37.067Z,15.77
2022-12-25T01:19:18.966Z,12.37
2022-12-25T01:23:00.997Z,20.00
2022-12-25T01:26:44.734Z,15.03
2022-12-25T01:30:26.586Z,14.03
2022-12-25T01:34:14.880Z,18.60
2022-12-25T01:37:56.719Z,14.70
2022-12-25T01:41:38.586Z,16.80
2022-12-25T01:45:43.586Z,19.47
2022-12-25T01:49:26.605Z,19.83
2022-12-25T01:53:15.815Z,17.33
2022-12-25T01:57:00.912Z,16.60
2022-12-25T02:00:43.146Z,19.10
2022-12-25T02:04:39.722Z,19.37
2022-12-25T02:08:23.411Z,20.73
2022-12-25T02:12:06.547Z,16.83
2022-12-25T02:16:05.309Z,18.70
2022-12-25T02:20:24.305Z,22.57
2022-12-25T02:24:25.848Z,18.73
2022-12-25T02:28:14.517Z,20.27
2022-12-25T02:32:21.889Z,18.33
2022-12-25T02:36:15.514Z,20.10
2022-12-25T02:40:07.877Z,19.77
2022-12-25T02:44:08.347Z,20.13
2022-12-25T02:48:19.348Z,18.20
2022-12-25T02:52:33.263Z,14.18
2022-12-25T02:56:37.589Z,19.00
2022-12-25T03:00:38.452Z,22.97
2022-12-25T03:04:41.434Z,20.38
2022-12-25T03:08:30.702Z,18.20
2022-12-25T03:12:24.974Z,17.00
2022-12-25T03:16:28.908Z,19.43
2022-12-25T03:20:31.718Z,17.20
2022-12-25T03:24:31.913Z,23.43
2022-12-25T03:28:17.157Z,19.73
2022-12-25T03:32:08.735Z,18.00
2022-12-25T03:36:17.721Z,28.43
2022-12-25T03:40:24.850Z,23.23
2022-12-25T03:44:55.716Z,18.90
2022-12-25T03:48:59.295Z,20.70
2022-12-25T03:53:01.172Z,22.80
2022-12-25T03:57:02.801Z,15.23
2022-12-25T04:01:03.242Z,28.27
2022-12-25T04:05:04.491Z,26.75
2022-12-25T04:09:04.657Z,25.17
2022-12-25T04:13:05.261Z,21.65
2022-12-25T04:17:05.674Z,22.83
2022-12-25T04:21:06.363Z,21.88
2022-12-25T04:25:06.769Z,19.75
2022-12-25T04:29:07.011Z,24.15
2022-12-25T04:33:07.424Z,22.35
2022-12-25T04:36:49.924Z,23.02
2022-12-25T04:40:31.674Z,28.57
2022-12-25T04:44:13.668Z,17.47
2022-12-25T04:47:55.627Z,21.30
2022-12-25T04:51:37.403Z,26.10
2022-12-25T04:55:19.147Z,22.53
2022-12-25T04:59:00.874Z,15.03
2022-12-25T05:02:42.748Z,16.87
2022-12-25T05:06:24.932Z,19.90
2022-12-25T05:10:07.410Z,21.53
2022-12-25T05:13:49.208Z,20.57
2022-12-25T05:17:31.088Z,26.73
2022-12-25T05:21:13.429Z,22.83
2022-12-25T05:24:55.313Z,23.73
2022-12-25T05:28:37.247Z,28.80
2022-12-25T05:32:18.976Z,27.17
2022-12-25T05:36:08.445Z,19.50
2022-12-25T05:39:50.251Z,27.57
2022-12-25T05:43:32.116Z,18.60
2022-12-25T05:47:13.825Z,28.67
2022-12-25T05:50:55.567Z,20.80
2022-12-25T05:54:37.314Z,21.47
2022-12-25T05:58:19.035Z,25.60
2022-12-25T06:02:00.876Z,20.33
2022-12-25T06:05:42.751Z,20.30
2022-12-25T06:09:24.508Z,23.00
2022-12-25T06:13:06.326Z,19.63
2022-12-25T06:16:52.554Z,26.23
2022-12-25T06:20:34.522Z,18.90
2022-12-25T06:24:21.009Z,23.33
2022-12-25T06:28:03.391Z,18.37
2022-12-25T06:31:45.290Z,20.07
2022-12-25T06:35:27.122Z,19.63
2022-12-25T06:39:09.966Z,22.90
2022-12-25T06:42:52.290Z,21.47
2022-12-25T06:46:34.055Z,18.10
2022-12-25T06:50:15.913Z,12.90
2022-12-25T06:53:58.608Z,20.40
2022-12-25T06:57:40.372Z,18.33
2022-12-25T07:01:24.396Z,19.80
2022-12-25T07:05:06.670Z,17.63
2022-12-25T07:08:48.637Z,17.53
2022-12-25T07:12:30.366Z,18.70
2022-12-25T07:16:13.103Z,21.83
2022-12-25T07:19:56.578Z,20.70
2022-12-25T07:23:38.645Z,17.13
2022-12-25T07:27:20.430Z,19.90
2022-12-25T07:31:13.594Z,23.00
2022-12-25T07:34:55.422Z,25.13
2022-12-25T07:38:37.366Z,21.17
2022-12-25T07:42:24.802Z,12.63
2022-12-25T07:46:07.498Z,18.63
2022-12-25T07:49:49.385Z,21.43
2022-12-25T07:53:32.129Z,20.33
2022-12-25T07:57:13.849Z,19.73
2022-12-25T08:00:55.953Z,17.60
2022-12-25T08:04:37.819Z,23.23
2022-12-25T08:08:19.601Z,21.13
2022-12-25T08:12:01.321Z,17.03
2022-12-25T08:15:43.154Z,24.83
2022-12-25T08:19:24.935Z,23.57
2022-12-25T08:23:06.737Z,19.87
2022-12-25T08:26:48.739Z,20.57
2022-12-25T08:30:30.745Z,15.40
2022-12-25T08:34:12.686Z,16.27
2022-12-25T08:37:54.373Z,21.57
2022-12-25T08:41:36.536Z,17.90
2022-12-25T08:45:18.275Z,18.93
2022-12-25T08:49:00.056Z,16.57
2022-12-25T08:52:43.090Z,14.53
2022-12-25T08:56:24.880Z,16.47
2022-12-25T09:00:07.265Z,16.27
2022-12-25T09:03:49.185Z,14.77
2022-12-25T09:07:30.925Z,13.97
2022-12-25T09:11:15.292Z,19.43
2022-12-25T09:14:57.012Z,14.73
2022-12-25T09:18:39.144Z,16.23
2022-12-25T09:22:20.889Z,16.60
2022-12-25T09:26:05.016Z,11.83
2022-12-25T09:29:46.723Z,13.00
2022-12-25T09:33:28.556Z,13.20
2022-12-25T09:37:10.371Z,8.03
2022-12-25T09:41:25.770Z,9.27
2022-12-25T09:45:12.622Z,11.00
2022-12-25T09:49:11.863Z,12.97
2022-12-25T09:53:03.466Z,18.23
2022-12-25T09:56:45.215Z,13.43
2022-12-25T10:00:36.455Z,16.53
2022-12-25T10:04:27.221Z,16.70
2022-12-25T10:08:42.653Z,16.70
2022-12-25T10:12:39.310Z,11.37
2022-12-25T10:16:42.469Z,15.07
2022-12-25T10:20:45.363Z,14.67
2022-12-25T10:24:38.530Z,9.27
2022-12-25T10:28:28.392Z,18.07
2022-12-25T10:32:10.640Z,19.70
2022-12-25T10:35:52.667Z,16.37
2022-12-25T10:39:34.376Z,16.27
2022-12-25T10:43:23.081Z,17.30
2022-12-25T10:47:05.637Z,15.30
2022-12-25T10:50:47.462Z,15.13
2022-12-25T10:58:29.541Z,18.83
2022-12-25T11:02:28.473Z,14.00
2022-12-25T11:06:43.023Z,12.90
2022-12-25T11:10:42.244Z,11.80
2022-12-25T11:14:25.444Z,10.83
2022-12-25T11:18:28.581Z,13.10
2022-12-25T11:22:18.757Z,8.77
2022-12-25T11:26:06.610Z,10.68
2022-12-25T11:29:52.650Z,9.73
2022-12-25T11:33:39.314Z,12.70
2022-12-25T11:37:39.646Z,14.23
2022-12-25T11:41:28.136Z,13.32
2022-12-25T11:45:20.790Z,10.20
2022-12-25T11:49:08.325Z,9.10
2022-12-25T11:52:51.906Z,10.80
2022-12-25T11:56:33.822Z,9.37
2022-12-25T12:00:17.069Z,12.97
2022-12-25T12:04:01.814Z,8.37
2022-12-25T12:08:05.123Z,2.87
2022-12-25T12:11:54.080Z,1.80
2022-12-25T12:15:39.841Z,3.80
2022-12-25T12:19:31.078Z,2.40
2022-12-25T12:27:23.899Z,5.23
2022-12-25T12:31:08.374Z,2.57
2022-12-25T12:34:50.610Z,5.70
2022-12-25T12:38:34.653Z,1.73
2022-12-25T12:42:20.042Z,0.53
2022-12-25T12:46:04.385Z,8.93
2022-12-25T12:50:00.879Z,2.90
2022-12-25T12:53:43.616Z,3.00
2022-12-25T12:57:29.346Z,3.30
2022-12-25T13:01:29.889Z,8.63
2022-12-25T13:05:39.555Z,3.42
2022-12-25T13:09:39.221Z,4.03
2022-12-25T13:13:26.473Z,3.83
2022-12-25T13:17:08.934Z,5.40
2022-12-25T13:20:59.334Z,5.10
2022-12-25T13:24:41.146Z,3.70
2022-12-25T13:28:34.362Z,4.27
2022-12-25T13:32:32.403Z,8.93
2022-12-25T13:36:14.576Z,3.43
2022-12-25T13:39:57.553Z,2.37
2022-12-25T13:43:40.773Z,3.80
2022-12-25T13:47:51.479Z,4.53
2022-12-25T13:51:36.604Z,3.77
2022-12-25T13:55:21.503Z,1.47
2022-12-25T13:59:05.033Z,1.40
2022-12-25T14:02:47.585Z,1.37
2022-12-25T14:06:30.963Z,1.87
2022-12-25T14:10:13.160Z,2.50
2022-12-25T14:13:59.911Z,2.80
2022-12-25T14:17:42.135Z,1.93
2022-12-25T14:21:29.942Z,0.97
2022-12-25T14:25:16.103Z,2.20
2022-12-25T14:29:15.687Z,1.23
2022-12-25T14:32:59.519Z,3.97
2022-12-25T14:36:41.643Z,12.33
2022-12-25T14:40:32.771Z,5.27
2022-12-25T14:44:34.669Z,2.30
2022-12-25T14:48:25.214Z,4.40
2022-12-25T14:52:16.846Z,4.65
2022-12-25T14:55:58.800Z,4.00
2022-12-25T14:59:40.693Z,4.13
2022-12-25T15:03:51.955Z,2.80
2022-12-25T15:07:33.881Z,5.73
2022-12-25T15:11:15.642Z,5.53
2022-12-25T15:14:57.327Z,7.10
2022-12-25T15:18:43.424Z,9.30
2022-12-25T15:22:25.190Z,4.73
2022-12-25T15:26:06.951Z,5.23
2022-12-25T15:33:51.080Z,5.13
2022-12-25T15:37:32.973Z,4.70
2022-12-25T15:41:39.155Z,5.07
2022-12-25T15:45:26.493Z,5.77
2022-12-25T15:49:10.451Z,9.40
2022-12-25T15:52:52.237Z,7.13
2022-12-25T15:56:48.760Z,7.13
2022-12-25T16:00:30.821Z,6.57
2022-12-25T16:04:12.579Z,7.20
2022-12-25T16:07:54.381Z,6.03
2022-12-25T16:11:36.109Z,12.50
2022-12-25T16:15:17.922Z,9.87
2022-12-25T16:18:59.995Z,10.53
2022-12-25T16:22:41.783Z,8.90
2022-12-25T16:26:23.494Z,14.13
2022-12-25T16:30:05.828Z,8.33
2022-12-25T16:33:47.585Z,11.13
2022-12-25T16:37:29.429Z,16.10
2022-12-25T16:41:13.885Z,11.00
2022-12-25T16:44:55.626Z,7.17
2022-12-25T16:48:37.503Z,16.07
2022-12-25T16:52:19.283Z,17.33
2022-12-25T16:56:09.389Z,20.00
2022-12-25T16:59:52.620Z,15.67
2022-12-25T17:03:35.006Z,15.73
2022-12-25T17:07:17.673Z,13.73
2022-12-25T17:10:59.386Z,20.37
2022-12-25T17:14:41.241Z,19.43
2022-12-25T17:18:23.052Z,17.90
2022-12-25T17:22:04.818Z,14.73
2022-12-25T17:25:46.767Z,18.13
2022-12-25T17:29:28.572Z,21.73
2022-12-25T17:33:10.291Z,16.20
2022-12-25T17:36:53.488Z,14.87
2022-12-25T17:40:35.337Z,13.30
2022-12-25T17:44:18.337Z,19.37
2022-12-25T17:48:00.056Z,12.70
2022-12-25T17:51:41.861Z,18.23
2022-12-25T17:55:23.606Z,18.03
2022-12-25T17:59:12.020Z,15.33
2022-12-25T18:02:53.821Z,15.77
2022-12-25T18:06:36.796Z,16.70
2022-12-25T18:10:18.567Z,19.63
2022-12-25T18:14:04.833Z,15.63
2022-12-25T18:17:46.529Z,18.87
2022-12-25T18:21:29.133Z,12.07
2022-12-25T18:25:10.925Z,15.10
2022-12-25T18:28:52.872Z,14.53
2022-12-25T18:32:34.613Z,15.23
2022-12-25T18:36:20.157Z,16.10
2022-12-25T18:40:02.282Z,12.63
2022-12-25T18:43:53.846Z,10.30
2022-12-25T18:47:37.047Z,12.43
2022-12-25T18:51:19.238Z,9.80
2022-12-25T18:55:01.205Z,10.97
2022-12-25T18:58:43.410Z,10.70
2022-12-25T19:02:25.260Z,10.63
2022-12-25T19:06:09.781Z,10.53
2022-12-25T19:09:51.652Z,8.93
2022-12-25T19:13:33.427Z,7.50
2022-12-25T19:17:15.869Z,7.50
2022-12-25T19:21:02.384Z,10.93
2022-12-25T19:24:44.351Z,8.97
2022-12-25T19:28:26.188Z,10.63
2022-12-25T19:32:08.071Z,9.43
2022-12-25T19:35:49.980Z,9.07
2022-12-25T19:39:31.816Z,13.03
2022-12-25T19:43:13.509Z,17.13
2022-12-25T19:46:55.877Z,11.93
2022-12-25T19:50:37.683Z,15.20
2022-12-25T19:54:20.697Z,9.57
2022-12-25T19:58:02.489Z,12.80
2022-12-25T20:01:44.499Z,12.50
2022-12-25T20:05:27.422Z,12.33
2022-12-25T20:09:12.993Z,9.40
2022-12-25T20:12:54.703Z,14.27
2022-12-25T20:16:38.120Z,15.33
2022-12-25T20:20:19.967Z,15.50
2022-12-25T20:24:01.886Z,14.33
2022-12-25T20:27:43.651Z,11.47
2022-12-25T20:31:33.751Z,11.27
2022-12-25T20:35:19.035Z,10.13
2022-12-25T20:39:00.935Z,9.50
2022-12-25T20:42:43.383Z,14.67
2022-12-25T20:46:25.934Z,12.60
2022-12-25T20:50:08.312Z,10.60
2022-12-25T20:53:50.850Z,8.83
2022-12-25T20:57:32.582Z,11.87
2022-12-25T21:01:17.311Z,12.37
2022-12-25T21:04:59.289Z,11.00
2022-12-25T21:08:41.272Z,17.17
2022-12-25T21:12:23.112Z,10.83
2022-12-25T21:16:06.843Z,12.37
2022-12-25T21:19:48.554Z,12.50
2022-12-25T21:23:30.422Z,15.10
2022-12-25T21:27:12.151Z,11.53
2022-12-25T21:30:54.003Z,13.50
2022-12-25T21:34:35.834Z,14.30
2022-12-25T21:38:17.800Z,10.30
2022-12-25T21:41:59.566Z,16.27
2022-12-25T21:45:41.776Z,15.20
2022-12-25T21:49:42.089Z,9.53
2022-12-25T21:53:23.805Z,14.32
2022-12-25T21:57:05.534Z,12.13
2022-12-25T22:00:47.333Z,14.30
2022-12-25T22:04:29.046Z,14.70
2022-12-25T22:08:10.774Z,17.03
2022-12-25T22:12:10.938Z,15.57
2022-12-25T22:16:11.499Z,14.43
2022-12-25T22:19:53.565Z,17.17
2022-12-25T22:23:35.312Z,11.50
2022-12-25T22:27:17.498Z,15.50
2022-12-25T22:31:02.700Z,10.87
2022-12-25T22:34:44.480Z,16.93
2022-12-25T22:38:26.221Z,17.30
2022-12-25T22:42:08.062Z,9.60
2022-12-25T22:45:50.466Z,18.00
2022-12-25T22:49:32.184Z,20.93
2022-12-25T22:53:13.943Z,15.83
2022-12-25T22:56:57.036Z,11.87
2022-12-25T23:00:46.254Z,9.83
2022-12-25T23:04:28.856Z,17.40
2022-12-25T23:08:10.643Z,16.63
2022-12-25T23:11:52.379Z,14.40
2022-12-25T23:15:34.229Z,15.10
2022-12-25T23:19:34.499Z,14.33
2022-12-25T23:23:35.594Z,17.75
2022-12-25T23:30:58.978Z,14.00
2022-12-25T23:34:42.223Z,16.87
2022-12-25T23:38:23.951Z,18.70
2022-12-25T23:42:05.861Z,18.37
2022-12-25T23:45:47.799Z,11.80
2022-12-25T23:49:29.939Z,19.77
2022-12-25T23:53:11.697Z,13.40
2022-12-25T23:56:53.926Z,14.47
